Time;durP1;ratioP1;P1;durP2;ratioP2;P2;SDS_P1;SDS_P2;PMS_P1;PMS_P2;Temp;Humidity;BMP_temperature;BMP_pressure;BME280_temperature;BME280_humidity;BME280_pressure;Samples;Min_cycle;Max_cycle;Signal;HPM_P1;HPM_P2
2022/07/16 00:02:42;;;;;;;12.23;11.40;;;16.80;99.90;;;16.92;72.95;100446.50;5059670;28;20202;-78
2022/07/16 00:05:10;;;;;;;8.80;8.13;;;16.70;99.90;;;16.89;72.38;100443.84;5067590;28;20238;-76
2022/07/16 00:07:38;;;;;;;14.18;13.05;;;16.70;99.90;;;16.95;73.24;100467.81;5056178;28;20210;-77
2022/07/16 00:10:07;;;;;;;15.15;13.93;;;16.70;99.90;;;16.82;73.06;100462.66;5055026;28;20206;-78
2022/07/16 00:12:36;;;;;;;8.65;8.05;;;16.70;99.90;;;16.90;73.72;100482.13;5054161;28;20210;-78
2022/07/16 00:15:05;;;;;;;18.98;17.45;;;16.70;99.90;;;16.73;73.72;100473.50;5063142;28;20236;-77
2022/07/16 00:17:33;;;;;;;15.48;14.38;;;16.60;99.90;;;16.76;73.98;100470.78;5056308;28;20206;-77
2022/07/16 00:20:01;;;;;;;16.90;15.80;;;16.60;99.90;;;16.44;75.44;100472.13;5054769;28;20202;-77
2022/07/16 00:22:29;;;;;;;13.27;12.23;;;16.50;99.90;;;16.20;77.00;100476.00;5087951;28;20195;-77
2022/07/16 00:24:57;;;;;;;12.32;11.20;;;16.40;99.90;;;16.14;78.05;100483.22;5040087;28;20609;-78
2022/07/16 00:27:25;;;;;;;17.88;16.35;;;16.30;99.90;;;15.97;78.11;100486.09;5069266;28;20229;-77
2022/07/16 00:29:52;;;;;;;15.88;14.65;;;16.20;99.90;;;15.98;79.41;100512.75;5067710;28;20204;-78
2022/07/16 00:32:20;;;;;;;12.38;11.15;;;16.10;99.90;;;16.06;79.09;100542.00;5078840;28;20268;-78
2022/07/16 00:34:48;;;;;;;13.02;11.98;;;16.10;99.90;;;15.94;78.25;100535.00;5075927;28;20671;-78
2022/07/16 00:37:16;;;;;;;10.65;9.85;;;16.00;99.90;;;16.09;78.67;100570.41;5070899;28;20208;-78
2022/07/16 00:39:44;;;;;;;16.13;15.10;;;16.00;99.90;;;16.06;77.00;100560.66;5073934;28;20213;-78
2022/07/16 00:42:12;;;;;;;13.65;12.63;;;15.90;99.90;;;16.02;77.38;100564.28;5080857;28;20205;-78
2022/07/16 00:44:40;;;;;;;12.07;11.20;;;15.90;99.90;;;15.94;77.60;100568.81;5070442;28;20251;-78
2022/07/16 00:47:08;;;;;;;10.55;9.63;;;15.90;99.90;;;15.98;78.02;100571.41;5081655;28;20233;-78
2022/07/16 00:49:36;;;;;;;13.23;12.23;;;15.90;99.90;;;15.89;78.83;100584.84;5076931;28;20213;-78
2022/07/16 00:52:04;;;;;;;7.95;7.15;;;15.80;99.90;;;15.76;80.72;100595.66;5085034;28;20205;-78
2022/07/16 00:54:32;;;;;;;13.15;10.48;;;15.70;99.90;;;15.72;80.64;100607.25;5085815;28;20205;-77
2022/07/16 00:57:00;;;;;;;8.77;8.07;;;15.70;99.90;;;15.66;80.85;100613.53;5099302;28;20204;-78
2022/07/16 00:59:28;;;;;;;11.90;11.00;;;15.70;99.90;;;15.71;80.24;100616.16;5083225;28;20214;-78
2022/07/16 01:01:56;;;;;;;10.02;9.25;;;15.70;99.90;;;15.64;79.87;100626.88;5080703;28;20576;-78
2022/07/16 01:04:24;;;;;;;13.75;12.43;;;15.70;99.90;;;15.54;81.55;100637.56;5067215;28;20209;-78
2022/07/16 01:06:53;;;;;;;13.45;12.35;;;15.60;99.90;;;15.51;82.52;100654.47;5072380;28;20233;-78
2022/07/16 01:09:22;;;;;;;17.70;16.60;;;15.60;99.90;;;15.79;81.27;100684.50;5085126;28;20198;-78
2022/07/16 01:11:50;;;;;;;9.23;8.25;;;15.60;99.90;;;15.82;80.07;100691.59;5073637;28;20214;-78
2022/07/16 01:14:19;;;;;;;10.63;9.57;;;15.60;99.90;;;15.59;80.38;100673.97;5051706;28;20214;-78
2022/07/16 01:16:47;;;;;;;15.93;14.82;;;15.50;99.90;;;15.59;81.22;100675.75;5077935;28;20213;-78
2022/07/16 01:19:15;;;;;;;26.88;25.17;;;15.50;99.90;;;15.55;82.48;100695.31;5073884;28;20225;-78
2022/07/16 01:21:43;;;;;;;22.58;21.33;;;15.50;99.90;;;15.52;80.71;100684.66;5074510;28;20193;-78
2022/07/16 01:24:11;;;;;;;39.33;36.47;;;15.40;99.90;;;15.55;81.18;100690.84;5071711;28;20205;-78
2022/07/16 01:26:39;;;;;;;23.48;22.08;;;15.40;99.90;;;15.57;81.65;100698.84;5067002;28;20230;-77
2022/07/16 01:29:07;;;;;;;29.33;27.52;;;15.40;99.90;;;15.57;82.33;100721.09;5080391;28;20197;-78
2022/07/16 01:31:35;;;;;;;13.80;13.00;;;15.40;99.90;;;15.53;82.71;100729.06;5065396;28;20203;-77
2022/07/16 01:37:08;;;;;;;20.48;19.17;;;15.30;99.90;;;15.23;84.87;100735.47;5075100;28;20706;-78
2022/07/16 01:39:39;;;;;;;20.38;18.98;;;15.20;99.90;;;15.02;85.92;100733.81;5062527;28;20201;-77
2022/07/16 01:42:10;;;;;;;28.77;26.90;;;15.20;99.90;;;14.85;85.79;100731.22;5074394;28;20215;-77
2022/07/16 01:44:38;;;;;;;26.67;25.23;;;15.00;99.90;;;14.91;87.46;100771.13;5073027;28;20222;-77
2022/07/16 01:47:07;;;;;;;29.75;28.05;;;14.90;99.90;;;14.68;88.11;100762.31;5074703;28;20232;-77
2022/07/16 01:49:37;;;;;;;41.53;39.38;;;14.90;99.90;;;14.56;88.38;100762.34;5069353;28;20209;-78
2022/07/16 01:52:21;;;;;;;50.80;48.47;;;14.80;99.90;;;14.78;88.07;100804.00;5080070;28;20194;-78
2022/07/16 01:54:52;;;;;;;46.53;44.35;;;14.70;99.90;;;14.83;88.13;100820.84;5057194;28;20229;-77
2022/07/16 01:57:21;;;;;;;55.55;52.85;;;14.70;99.90;;;14.80;86.70;100812.88;5074663;28;20205;-77
2022/07/16 01:59:50;;;;;;;46.40;44.50;;;14.80;99.90;;;14.95;86.54;100828.81;5048472;28;20214;-78
2022/07/16 02:02:18;;;;;;;55.22;52.78;;;14.80;99.90;;;14.94;85.26;100808.41;5087635;28;20201;-78
2022/07/16 02:04:46;;;;;;;56.22;53.42;;;14.80;99.90;;;14.93;82.79;100787.09;5071558;28;20718;-77
2022/07/16 02:07:14;;;;;;;40.58;38.83;;;14.70;99.90;;;15.09;82.69;100799.47;5075007;28;20230;-77
2022/07/16 02:09:41;;;;;;;39.45;37.65;;;14.80;99.90;;;15.11;81.95;100767.50;5065269;28;20212;-78
2022/07/16 02:12:09;;;;;;;40.42;37.90;;;14.80;99.90;;;15.09;82.72;100790.59;5058229;28;20582;-78
2022/07/16 02:14:37;;;;;;;39.38;37.78;;;14.80;99.90;;;15.02;84.04;100811.03;5058941;28;20222;-78
2022/07/16 02:17:05;;;;;;;32.75;31.10;;;14.80;99.90;;;14.87;84.13;100797.78;5072983;28;20234;-77
2022/07/16 02:19:33;;;;;;;27.23;25.83;;;14.80;99.90;;;14.82;86.63;100818.19;5056467;28;20233;-77
2022/07/16 02:22:01;;;;;;;29.40;28.17;;;14.70;99.90;;;14.58;88.88;100830.66;5058903;28;20218;-77
2022/07/16 02:24:29;;;;;;;24.58;23.27;;;14.60;99.90;;;14.33;90.52;100827.09;5058372;28;20218;-78
2022/07/16 02:26:57;;;;;;;50.35;47.97;;;14.50;99.90;;;14.22;90.76;100834.16;5076710;28;20228;-77
2022/07/16 02:29:25;;;;;;;46.75;44.70;;;14.40;99.90;;;14.42;89.27;100842.22;5069287;28;20217;-78
2022/07/16 02:31:53;;;;;;;43.53;41.45;;;14.30;99.90;;;14.28;89.98;100847.44;5059785;28;20210;-78
2022/07/16 02:34:21;;;;;;;27.80;26.45;;;14.30;99.90;;;14.04;91.13;100850.97;5061407;28;20199;-78
2022/07/16 02:36:49;;;;;;;36.75;35.08;;;14.20;99.90;;;13.84;92.55;100858.03;5059822;28;20221;-77
2022/07/16 02:39:17;;;;;;;46.25;43.92;;;14.00;99.90;;;13.64;93.90;100865.94;5064362;28;20201;-77
2022/07/16 02:41:45;;;;;;;46.65;44.85;;;13.90;99.90;;;13.56;94.13;100869.47;5080197;28;20206;-77
2022/07/16 02:44:13;;;;;;;32.38;30.77;;;13.80;99.90;;;13.45;95.92;100891.56;5071021;28;20213;-77
2022/07/16 02:46:41;;;;;;;55.63;53.20;;;13.70;99.90;;;13.13;97.43;100898.44;5067968;28;20225;-77
2022/07/16 02:49:08;;;;;;;51.70;49.50;;;13.60;99.90;;;13.11;98.56;100919.69;5060715;28;20214;-77
2022/07/16 02:51:36;;;;;;;60.38;57.65;;;13.40;99.90;;;13.21;98.02;100948.97;5059338;28;20213;-77
2022/07/16 02:54:04;;;;;;;55.72;52.80;;;13.30;99.90;;;13.17;97.19;100947.19;5059050;28;20209;-77
2022/07/16 02:56:32;;;;;;;66.40;63.70;;;13.30;99.90;;;13.27;96.93;100965.84;5072426;28;20228;-78
2022/07/16 02:59:00;;;;;;;74.55;71.15;;;13.20;99.90;;;13.28;95.52;100961.41;5067565;28;20221;-77
2022/07/16 03:01:28;;;;;;;81.00;77.80;;;13.20;99.90;;;13.21;96.88;100972.88;5056398;28;20217;-78
2022/07/16 03:03:56;;;;;;;93.65;89.57;;;13.20;99.90;;;13.22;96.90;100982.63;5055944;28;20215;-77
2022/07/16 03:06:24;;;;;;;88.82;85.18;;;13.20;99.90;;;12.86;98.61;100984.06;5067778;28;20218;-77
2022/07/16 03:08:52;;;;;;;95.95;92.07;;;13.20;99.90;;;12.90;98.53;100982.31;5057156;28;20234;-78
2022/07/16 03:11:20;;;;;;;102.32;97.80;;;13.10;99.90;;;12.86;98.66;100999.09;5055209;28;20213;-77
2022/07/16 03:13:48;;;;;;;95.18;91.20;;;13.00;99.90;;;12.97;98.16;101018.66;5050673;28;20671;-77
2022/07/16 03:16:16;;;;;;;119.20;114.75;;;13.00;99.90;;;12.83;99.92;101027.38;5077555;28;20222;-77
2022/07/16 03:18:44;;;;;;;132.20;126.82;;;13.00;99.90;;;12.90;100.00;101048.69;5067869;28;20213;-78
2022/07/16 03:21:12;;;;;;;116.00;111.45;;;13.00;99.90;;;12.89;100.00;101076.09;5068396;28;20205;-78
2022/07/16 03:23:40;;;;;;;129.40;124.18;;;13.00;99.90;;;12.79;100.00;101080.44;5055290;28;20214;-77
2022/07/16 03:26:08;;;;;;;145.60;139.57;;;13.00;99.90;;;12.72;100.00;101084.78;5063143;28;20222;-77
2022/07/16 03:28:37;;;;;;;156.70;150.73;;;12.90;99.90;;;12.70;100.00;101098.91;5062759;28;20225;-77
2022/07/16 03:31:05;;;;;;;138.43;133.18;;;12.80;99.90;;;12.63;100.00;101103.25;5063546;28;20210;-77
2022/07/16 03:33:33;;;;;;;159.07;152.15;;;12.80;99.90;;;12.38;100.00;101102.09;5066730;28;20213;-77
2022/07/16 03:36:01;;;;;;;171.73;165.00;;;12.70;99.90;;;12.49;100.00;101112.81;5064743;28;20221;-77
2022/07/16 03:41:15;;;;;;;173.85;166.68;;;12.50;99.90;;;12.50;100.00;101127.88;5056291;28;20210;-77
2022/07/16 03:43:46;;;;;;;181.02;173.93;;;12.50;99.90;;;12.43;100.00;101140.16;5055948;28;20225;-77
2022/07/16 03:46:14;;;;;;;143.25;137.80;;;12.50;99.90;;;12.36;100.00;101146.28;5068366;28;20237;-77
2022/07/16 03:48:43;;;;;;;219.93;211.15;;;12.50;99.90;;;12.42;100.00;101161.38;5055300;28;20698;-77
2022/07/16 03:51:12;;;;;;;252.05;242.45;;;12.50;99.90;;;12.38;100.00;101171.06;5066777;28;20221;-77
2022/07/16 03:53:40;;;;;;;280.70;269.85;;;12.50;99.90;;;12.48;100.00;101159.69;5054883;28;20206;-77
2022/07/16 03:56:09;;;;;;;250.82;241.38;;;12.40;99.90;;;12.53;100.00;101159.75;5062718;28;20228;-78
2022/07/16 03:58:37;;;;;;;208.25;200.43;;;12.40;99.90;;;12.45;100.00;101169.38;5061833;28;20202;-77
2022/07/16 04:01:05;;;;;;;196.20;188.35;;;12.50;99.90;;;12.53;100.00;101175.66;5058923;28;20682;-76
2022/07/16 04:03:35;;;;;;;215.82;207.40;;;12.40;99.90;;;12.55;100.00;101181.00;5078460;28;20199;-77
2022/07/16 04:06:04;;;;;;;186.85;178.32;;;12.40;99.90;;;12.56;100.00;101196.94;5070067;28;20252;-77
2022/07/16 04:08:32;;;;;;;162.38;155.68;;;12.50;99.90;;;12.73;100.00;101216.63;5056650;28;20225;-77
2022/07/16 04:11:01;;;;;;;158.45;152.18;;;12.50;99.90;;;12.67;100.00;101215.66;5066827;28;20202;-78
2022/07/16 04:13:29;;;;;;;136.48;131.20;;;12.50;99.90;;;12.78;100.00;101224.63;5065550;28;20209;-77
2022/07/16 04:15:57;;;;;;;122.30;117.50;;;12.50;99.90;;;12.88;100.00;101225.63;5055691;28;20233;-77
2022/07/16 04:18:25;;;;;;;132.10;126.90;;;12.60;99.90;;;12.71;100.00;101215.72;5060181;28;20421;-77
2022/07/16 04:20:53;;;;;;;139.00;133.55;;;12.70;99.90;;;12.67;100.00;101235.13;5071523;28;20205;-77
2022/07/16 04:23:21;;;;;;;140.32;134.70;;;12.60;99.90;;;12.77;100.00;101242.31;5092925;28;20201;-77
2022/07/16 04:25:49;;;;;;;143.80;137.60;;;12.60;99.90;;;12.77;100.00;101241.44;5084200;28;20226;-78
2022/07/16 04:28:18;;;;;;;102.47;98.00;;;12.70;99.90;;;12.60;100.00;101233.25;5072027;28;20225;-77
2022/07/16 04:30:46;;;;;;;99.90;95.53;;;12.60;99.90;;;12.68;100.00;101239.56;5059444;28;20206;-77
2022/07/16 04:33:14;;;;;;;110.93;106.63;;;12.60;99.90;;;12.67;100.00;101244.84;5062620;28;20218;-78
2022/07/16 04:35:42;;;;;;;101.65;97.55;;;12.50;99.90;;;12.72;100.00;101240.47;5065236;28;20226;-78
2022/07/16 04:38:11;;;;;;;104.97;100.90;;;12.50;99.90;;;12.86;100.00;101261.91;5071631;28;20593;-78
2022/07/16 04:40:38;;;;;;;103.28;99.28;;;12.60;99.90;;;12.94;100.00;101271.75;5074594;28;20199;-78
2022/07/16 04:43:06;;;;;;;91.68;87.97;;;12.70;99.90;;;12.95;100.00;101268.22;5063356;28;20233;-78
2022/07/16 04:45:34;;;;;;;100.85;96.93;;;12.70;99.90;;;13.02;100.00;101285.16;5060720;28;20219;-77
2022/07/16 04:48:03;;;;;;;91.28;87.13;;;12.80;99.90;;;13.06;100.00;101293.16;5054976;28;20223;-77
2022/07/16 04:50:32;;;;;;;99.88;95.68;;;12.80;99.90;;;13.08;100.00;101333.03;5057325;28;20573;-76
2022/07/16 04:53:00;;;;;;;84.00;80.47;;;12.90;99.90;;;12.91;100.00;101340.72;5065880;28;20213;-76
2022/07/16 04:55:28;;;;;;;97.00;92.70;;;12.80;99.90;;;12.90;100.00;101346.91;5066942;28;20224;-76
2022/07/16 04:57:56;;;;;;;110.57;105.53;;;12.80;99.90;;;13.03;100.00;101362.19;5063664;28;20228;-76
2022/07/16 05:00:27;;;;;;;96.40;92.43;;;12.80;99.90;;;13.23;100.00;101385.50;5066399;28;20221;-77
2022/07/16 05:02:57;;;;;;;86.38;81.85;;;12.80;99.90;;;13.25;100.00;101397.03;5074614;28;20206;-77
2022/07/16 05:05:37;;;;;;;84.90;81.25;;;12.90;99.90;;;13.42;100.00;101414.97;5065104;28;20221;-77
2022/07/16 05:08:08;;;;;;;77.07;70.75;;;13.00;99.90;;;13.52;100.00;101409.78;5065751;28;20213;-76
2022/07/16 05:10:36;;;;;;;67.72;62.65;;;13.20;99.90;;;13.57;100.00;101406.31;5059089;28;20209;-78
2022/07/16 05:13:06;;;;;;;51.13;48.03;;;13.20;99.90;;;13.77;100.00;101415.41;5071835;28;20670;-77
2022/07/16 05:15:34;;;;;;;67.72;63.83;;;13.30;99.90;;;13.86;100.00;101411.97;5063015;28;20238;-79
2022/07/16 05:18:03;;;;;;;66.95;62.38;;;13.30;99.90;;;14.04;100.00;101401.50;5061749;28;20206;-79
2022/07/16 05:20:32;;;;;;;57.97;54.65;;;13.50;99.90;;;14.17;100.00;101391.00;5062825;28;20202;-78
2022/07/16 05:23:00;;;;;;;49.92;46.60;;;13.50;99.90;;;14.29;100.00;101378.69;5069115;28;20209;-79
2022/07/16 05:25:28;;;;;;;41.63;39.80;;;13.70;99.90;;;14.44;100.00;101391.31;5067818;28;20229;-78
2022/07/16 05:27:56;;;;;;;35.47;33.60;;;13.70;99.90;;;14.45;98.92;101374.47;5067826;28;20201;-78
2022/07/16 05:30:24;;;;;;;49.47;47.13;;;13.80;99.90;;;14.53;98.76;101374.53;5065701;28;20221;-78
2022/07/16 05:32:52;;;;;;;47.20;44.63;;;13.90;99.90;;;14.68;96.33;101354.22;5060804;28;20209;-78
2022/07/16 05:35:20;;;;;;;51.95;49.60;;;14.10;99.90;;;14.92;98.38;101381.91;5070585;28;20237;-78
2022/07/16 05:37:48;;;;;;;49.53;47.28;;;14.20;99.90;;;15.15;97.89;101398.03;5081432;28;20202;-78
2022/07/16 05:40:16;;;;;;;48.67;45.90;;;14.40;99.90;;;15.27;98.71;101411.41;5077995;28;20206;-78
2022/07/16 05:42:45;;;;;;;53.33;50.60;;;14.50;99.90;;;15.34;97.88;101405.22;5065579;28;20206;-78
2022/07/16 05:45:17;;;;;;;44.75;42.65;;;14.60;99.90;;;15.35;97.66;101394.56;5071754;28;20226;-77
2022/07/16 05:47:46;;;;;;;49.38;47.33;;;14.70;99.90;;;15.45;96.83;101384.84;5062071;28;20207;-78
2022/07/16 05:50:14;;;;;;;47.92;44.63;;;14.90;99.90;;;15.67;96.04;101392.09;5055541;28;20218;-78
2022/07/16 05:52:42;;;;;;;59.97;54.95;;;15.10;99.90;;;15.80;95.07;101385.03;5058469;28;20206;-78
2022/07/16 05:55:11;;;;;;;41.63;38.97;;;;;;;16.00;95.44;101393.09;5066459;28;20233;-79
2022/07/16 05:57:42;;;;;;;34.63;32.03;;;;;;;16.04;93.41;101365.53;5077447;28;20211;-77
2022/07/16 06:00:12;;;;;;;48.67;45.10;;;15.40;99.90;;;16.07;93.15;101356.63;5068476;28;20265;-78
2022/07/16 06:02:41;;;;;;;53.10;48.78;;;15.50;99.90;;;16.13;91.21;101333.50;5059423;28;20214;-77
2022/07/16 06:05:10;;;;;;;38.13;35.50;;;15.60;99.90;;;16.40;89.06;101321.03;5066071;28;20229;-78
2022/07/16 06:07:39;;;;;;;51.47;46.97;;;15.80;99.90;;;16.62;88.06;101309.44;5059875;28;20225;-77
2022/07/16 06:10:08;;;;;;;24.42;22.42;;;16.00;99.90;;;16.69;87.96;101297.00;5059763;28;20242;-77
2022/07/16 06:12:36;;;;;;;52.63;49.47;;;16.10;99.90;;;16.98;86.99;101303.19;5070728;28;20564;-77
2022/07/16 06:15:06;;;;;;;41.83;39.65;;;16.30;99.90;;;17.17;84.95;101283.50;5066231;28;20217;-76
2022/07/16 06:17:34;;;;;;;42.45;40.40;;;16.70;99.90;;;17.17;83.06;101242.53;5052849;28;20242;-76
2022/07/16 06:20:04;;;;;;;61.88;58.85;;;16.70;99.90;;;17.49;82.25;101232.53;5052826;28;20202;-77
2022/07/16 06:22:33;;;;;;;51.25;48.88;;;16.90;99.90;;;17.66;81.87;101228.84;5067249;28;20209;-76
2022/07/16 06:25:01;;;;;;;51.30;49.38;;;17.10;99.90;;;17.67;80.57;101195.88;5055687;28;20234;-77
2022/07/16 06:27:29;;;;;;;47.20;44.63;;;17.20;99.90;;;17.76;80.31;101190.44;5061400;28;20221;-76
2022/07/16 06:30:03;;;;;;;48.42;46.05;;;17.40;99.90;;;17.63;82.97;101205.69;5070844;28;20233;-77
2022/07/16 06:32:31;;;;;;;54.47;52.05;;;17.40;99.90;;;17.83;81.44;101201.09;5054878;28;20198;-78
2022/07/16 06:34:59;;;;;;;70.40;67.45;;;17.40;99.90;;;18.27;82.58;101234.63;5050304;28;20234;-77
2022/07/16 06:37:27;;;;;;;54.05;51.42;;;17.80;99.90;;;18.36;81.73;101214.91;5059647;28;20213;-78
2022/07/16 06:39:55;;;;;;;65.85;61.75;;;17.90;99.90;;;18.91;81.32;101233.03;5067018;28;20225;-81
2022/07/16 06:42:23;;;;;;;51.95;47.65;;;18.30;99.90;;;19.11;79.41;101198.81;5068298;28;20217;-78
2022/07/16 06:44:52;;;;;;;53.42;48.55;;;;;;;19.06;78.35;101163.16;5059125;28;20236;-79
2022/07/16 06:47:20;;;;;;;66.53;63.30;;;;;;;18.97;78.95;101158.81;5063990;28;20206;-80
2022/07/16 06:49:48;;;;;;;63.08;59.65;;;18.80;99.90;;;19.35;78.55;101179.69;5072997;28;20228;-80
2022/07/16 06:52:16;;;;;;;60.40;56.83;;;19.00;99.90;;;19.30;76.40;101138.66;5064034;28;20217;-80
2022/07/16 06:54:45;;;;;;;66.82;62.58;;;19.20;99.90;;;19.57;75.10;101110.56;5056628;28;20693;-80
2022/07/16 06:57:13;;;;;;;39.13;36.35;;;19.30;99.90;;;19.79;75.51;101114.63;5076215;28;20210;-81
2022/07/16 06:59:41;;;;;;;30.50;28.50;;;19.50;99.90;;;19.72;75.57;101093.28;5068084;28;20222;-81
2022/07/16 07:02:09;;;;;;;24.27;22.50;;;19.60;99.90;;;19.74;75.70;101092.34;5068060;28;20202;-81
2022/07/16 07:04:37;;;;;;;25.65;23.73;;;19.70;99.90;;;19.84;75.20;101078.75;5065336;28;20226;-79
2022/07/16 07:07:07;;;;;;;26.25;24.92;;;19.80;99.90;;;20.02;73.98;101057.81;5056139;28;20206;-78
2022/07/16 07:09:35;;;;;;;29.67;27.20;;;19.90;99.90;;;20.49;72.47;101061.34;5074987;28;20230;-80
2022/07/16 07:12:04;;;;;;;17.75;15.43;;;20.30;99.90;;;20.48;71.92;101018.38;5055019;28;20199;-78
2022/07/16 07:14:32;;;;;;;23.30;9.05;;;20.40;99.90;;;20.45;71.01;100987.09;5058249;28;20674;-79
2022/07/16 07:17:01;;;;;;;2.70;2.05;;;20.60;99.90;;;20.74;70.35;100992.69;5056272;28;20206;-80
2022/07/16 07:19:30;;;;;;;3.42;3.08;;;20.80;99.90;;;20.84;70.31;100970.97;5086379;28;20209;-79
2022/07/16 07:22:00;;;;;;;5.30;4.07;;;20.80;99.90;;;20.89;70.93;100980.69;5061193;28;20230;-80
2022/07/16 07:24:28;;;;;;;10.27;4.43;;;20.80;99.90;;;21.34;70.00;100978.66;5061760;28;20206;-79
2022/07/16 07:27:16;;;;;;;6.20;2.05;;;21.20;99.90;;;21.07;69.69;100914.81;5066611;28;20206;-79
2022/07/16 07:29:44;;;;;;;5.28;2.47;;;21.20;99.90;;;21.26;68.41;100913.44;5074948;28;20222;-79
2022/07/16 07:32:13;;;;;;;6.38;2.97;;;21.20;99.90;;;21.33;68.33;100904.25;5075117;28;20202;-81
2022/07/16 07:34:41;;;;;;;6.10;3.33;;;21.30;99.90;;;20.93;69.35;100847.97;5064854;28;20225;-79
2022/07/16 07:37:09;;;;;;;9.80;3.30;;;21.00;99.90;;;21.62;67.94;100891.78;5071869;28;20199;-79
2022/07/16 07:39:37;;;;;;;4.93;2.83;;;21.40;99.90;;;21.87;66.42;100868.59;5066280;28;20209;-80
2022/07/16 07:42:05;;;;;;;6.20;4.05;;;21.80;99.90;;;22.27;66.52;100880.88;5078151;28;20202;-80
2022/07/16 07:44:33;;;;;;;14.15;4.10;;;22.30;99.90;;;22.25;64.20;100808.19;5057297;28;20206;-80
2022/07/16 07:47:01;;;;;;;4.97;1.65;;;22.40;99.90;;;22.30;63.94;100781.97;5073490;28;20209;-79
2022/07/16 07:49:29;;;;;;;14.00;3.60;;;22.60;99.90;;;22.94;62.69;100792.34;5064292;28;20203;-79
2022/07/16 07:51:57;;;;;;;7.15;3.42;;;23.00;99.90;;;23.01;64.33;100801.97;5070577;28;20205;-79
2022/07/16 07:54:25;;;;;;;5.82;2.00;;;23.00;99.90;;;22.73;63.38;100733.75;5067848;28;20198;-82
2022/07/16 07:56:53;;;;;;;5.22;1.85;;;23.20;99.90;;;23.20;64.58;100794.06;5063292;28;20220;-79
2022/07/16 07:59:21;;;;;;;7.57;2.88;;;23.60;99.90;;;22.71;64.12;100717.63;5066909;28;20206;-79
2022/07/16 08:01:49;;;;;;;9.52;4.47;;;23.20;99.90;;;23.82;63.44;100798.94;5072382;28;20224;-79
2022/07/16 08:04:17;;;;;;;5.38;2.08;;;23.60;99.90;;;23.33;62.62;100709.00;5055117;28;20589;-79
2022/07/16 08:06:46;;;;;;;2.88;1.45;;;23.60;99.90;;;23.17;63.17;100681.75;5066951;28;20205;-79
2022/07/16 08:09:14;;;;;;;5.78;2.80;;;23.50;99.90;;;23.17;61.86;100657.47;5063726;28;20202;-79
2022/07/16 08:11:42;;;;;;;3.88;1.35;;;23.50;99.90;;;24.00;61.61;100722.53;5057979;28;20228;-79
2022/07/16 08:14:10;;;;;;;10.32;2.53;;;23.90;99.90;;;22.85;60.68;100521.19;5064890;28;20217;-79
2022/07/16 08:16:56;;;;;;;5.28;1.52;;;23.40;99.90;;;23.28;61.84;100598.56;5058044;28;20206;-80
2022/07/16 08:19:25;;;;;;;3.15;1.33;;;23.40;99.90;;;23.79;61.51;100646.00;5074244;28;20201;-79
2022/07/16 08:21:53;;;;;;;7.40;1.95;;;23.80;99.90;;;23.79;61.37;100628.91;5073095;28;20206;-79
2022/07/16 08:27:08;;;;;;;3.63;1.20;;;24.20;99.90;;;23.89;60.48;100593.34;5066976;28;20217;-79
2022/07/16 08:29:36;;;;;;;6.28;1.58;;;24.40;99.90;;;24.58;61.44;100657.88;5057322;28;20210;-79
2022/07/16 08:32:05;;;;;;;4.68;1.23;;;24.80;99.90;;;23.41;59.90;100452.34;5065761;28;20201;-79
2022/07/16 08:34:33;;;;;;;4.53;1.50;;;24.40;99.90;;;23.94;60.88;100541.81;5060044;28;20202;-79
2022/07/16 08:37:08;;;;;;;4.57;1.38;;;24.30;99.90;;;24.39;61.00;100592.94;5069075;28;20210;-80
2022/07/16 08:39:44;;;;;;;6.53;1.88;;;24.40;99.90;;;24.12;61.06;100540.13;5068427;28;20200;-80
2022/07/16 08:42:13;;;;;;;5.00;1.40;;;24.50;99.90;;;24.24;60.21;100542.25;5065922;28;20204;-79
2022/07/16 08:44:42;;;;;;;4.63;1.27;;;24.60;99.90;;;24.80;61.82;100607.28;5085387;28;20234;-79
2022/07/16 08:47:12;;;;;;;7.35;2.05;;;25.30;99.90;;;25.70;60.97;100673.34;5057884;28;20197;-81
2022/07/16 08:49:43;;;;;;;4.75;1.27;;;25.90;99.90;;;25.06;60.27;100559.19;5067280;28;20201;-79
2022/07/16 08:52:13;;;;;;;4.32;1.25;;;26.00;99.90;;;25.33;59.95;100571.38;5058139;28;20206;-80
2022/07/16 08:54:42;;;;;;;6.00;1.58;;;26.50;99.90;;;24.87;59.55;100481.59;5059372;28;20230;-79
2022/07/16 08:57:19;;;;;;;11.90;2.90;;;26.10;99.90;;;25.43;59.57;100532.06;5064251;28;20206;-83
2022/07/16 08:59:48;;;;;;;4.10;1.40;;;26.50;99.90;;;25.84;57.82;100520.94;5074405;28;20217;-80
2022/07/16 09:02:16;;;;;;;3.70;1.13;;;27.00;99.90;;;24.97;57.92;100368.44;5078030;28;20205;-80
2022/07/16 09:04:46;;;;;;;3.50;0.98;;;26.80;99.90;;;25.23;59.28;100431.16;5080922;28;20224;-80
2022/07/16 09:07:16;;;;;;;3.42;1.33;;;26.00;99.90;;;25.31;59.39;100437.06;5082559;28;20231;-79
2022/07/16 09:09:45;;;;;;;6.30;1.92;;;26.10;99.90;;;25.77;57.08;100439.13;5073071;28;20206;-80
2022/07/16 09:12:42;;;;;;;3.03;1.00;;;26.50;99.90;;;24.99;56.30;100284.47;5063327;28;20225;-80
2022/07/16 09:15:37;;;;;;;5.90;2.22;;;26.10;99.40;;;26.41;55.58;100429.34;5100009;28;20235;-80
2022/07/16 09:18:16;;;;;;;3.85;1.17;;;26.90;99.90;;;25.18;57.42;100275.31;5060415;28;20213;-79
2022/07/16 09:21:01;;;;;;;3.72;0.95;;;26.50;99.10;;;24.99;57.39;100242.06;5066376;28;20193;-80
2022/07/16 09:23:38;;;;;;;3.40;1.45;;;25.80;99.20;;;25.67;57.32;100321.41;5068293;28;20213;-80
2022/07/16 09:26:10;;;;;;;13.02;3.83;;;26.20;99.90;;;26.22;56.55;100367.13;5076282;28;20641;-81
2022/07/16 09:28:47;;;;;;;4.75;1.40;;;26.70;99.90;;;26.44;56.18;100386.66;5085792;28;20198;-79
2022/07/16 09:31:35;;;;;;;4.10;1.55;;;26.80;99.90;;;26.08;57.26;100324.53;5083419;28;20244;-80
2022/07/16 09:34:13;;;;;;;14.10;3.40;;;27.00;98.90;;;25.52;56.56;100239.13;5078082;28;20209;-79
2022/07/16 09:37:02;;;;;;;2.75;0.70;;;26.60;98.50;;;26.09;56.88;100303.72;5061835;28;20205;-79
2022/07/16 09:39:32;;;;;;;3.70;0.95;;;26.50;99.90;;;25.94;57.02;100274.75;5074560;28;20198;-79
2022/07/16 09:42:00;;;;;;;4.35;1.10;;;26.80;98.40;;;26.35;57.24;100327.53;5067052;28;20501;-80
2022/07/16 09:44:34;;;;;;;5.80;1.40;;;27.00;99.30;;;25.71;55.54;100192.09;5077730;28;20662;-80
2022/07/16 09:47:09;;;;;;;6.82;3.72;;;26.80;97.10;;;26.01;56.72;100252.69;5080799;28;20209;-79
2022/07/16 09:49:40;;;;;;;4.45;1.30;;;26.70;98.20;;;26.43;55.72;100281.84;5083144;28;20197;-80
2022/07/16 09:52:31;;;;;;;4.60;1.27;;;27.00;97.80;;;26.41;56.25;100245.81;5063948;28;20272;-80
2022/07/16 09:55:02;;;;;;;4.60;1.42;;;26.80;96.90;;;26.02;54.59;100148.75;5026545;28;20233;-79
2022/07/16 09:57:30;;;;;;;6.95;1.95;;;26.90;95.70;;;26.56;55.41;100244.03;5029099;28;20211;-80
2022/07/16 09:59:59;;;;;;;5.45;1.60;;;27.40;97.60;;;26.40;55.66;100195.28;5040260;28;20210;-78
2022/07/16 10:02:38;;;;;;;2.42;0.75;;;27.80;95.60;;;27.53;55.98;100325.88;5016489;28;20198;-80
2022/07/16 10:05:07;;;;;;;10.55;5.40;;;28.40;97.10;;;27.33;54.53;100256.53;5021946;28;20230;-80
2022/07/16 10:07:35;;;;;;;6.93;2.13;;;29.00;96.30;;;27.67;53.94;100266.16;5026161;28;20198;-80
2022/07/16 10:10:04;;;;;;;5.70;1.73;;;29.50;94.80;;;27.43;53.64;100200.66;5027153;28;20214;-79
2022/07/16 10:12:32;;;;;;;5.10;1.40;;;29.20;92.80;;;27.18;53.90;100160.59;5030502;28;20232;-80
2022/07/16 10:15:01;;;;;;;5.35;1.40;;;28.50;92.80;;;26.74;54.73;100103.69;5054687;28;20691;-80
2022/07/16 10:17:37;;;;;;;3.45;1.00;;;27.90;93.00;;;27.40;54.49;100177.28;5051006;28;20216;-80
2022/07/16 10:20:11;;;;;;;4.97;1.45;;;28.10;93.80;;;27.11;54.06;100115.81;5023401;28;20242;-81
2022/07/16 10:22:45;;;;;;;7.68;2.40;;;28.00;92.00;;;28.26;54.14;100248.66;5022162;28;20214;-80